createdAt,value
2018-06-14T06:16:38.534Z,-141.23
2018-06-14T06:19:07.800Z,-141.23
2018-06-14T06:21:37.120Z,-141.23
2018-06-14T06:24:06.510Z,-141.23
2018-06-14T06:26:35.782Z,-141.23
2018-06-14T06:29:05.422Z,-141.23
2018-06-14T06:31:34.693Z,-141.23
2018-06-14T06:34:03.924Z,-141.23
2018-06-14T06:36:33.140Z,-141.23
2018-06-14T06:39:02.487Z,-141.23
2018-06-14T06:41:31.815Z,-141.23
2018-06-14T06:44:01.082Z,-141.23
2018-06-14T06:46:30.373Z,-141.23
2018-06-14T06:48:59.744Z,-141.23
2018-06-14T06:51:28.982Z,-141.23
2018-06-14T06:53:58.283Z,-141.23
2018-06-14T06:56:27.589Z,-141.23
2018-06-14T06:58:56.920Z,-141.23
2018-06-14T07:01:26.148Z,-141.23
2018-06-14T07:03:55.381Z,-141.23
2018-06-14T07:06:24.847Z,-141.23
2018-06-14T07:08:54.089Z,-141.23
2018-06-14T07:14:10.421Z,-141.23
2018-06-14T07:16:40.004Z,-141.23
2018-06-14T07:19:09.242Z,-141.23
2018-06-14T07:21:38.451Z,-141.23
2018-06-14T07:24:08.011Z,-141.23
2018-06-14T07:26:37.212Z,35.24
2018-06-14T07:29:06.589Z,-141.23
2018-06-14T07:31:36.491Z,-141.23
2018-06-14T07:34:05.762Z,-141.23
2018-06-14T07:36:34.986Z,-141.23
2018-06-14T07:39:06.412Z,-141.23
2018-06-14T07:41:35.680Z,-141.23
2018-06-14T07:44:05.066Z,-141.23
2018-06-14T07:46:34.690Z,-141.23
2018-06-14T07:49:04.227Z,-141.23
2018-06-14T07:51:33.784Z,-141.23
2018-06-14T07:54:03.404Z,-141.23
2018-06-14T07:56:32.923Z,-141.23
2018-06-14T07:59:02.161Z,-141.23
2018-06-14T08:01:31.397Z,-141.23
2018-06-14T08:04:00.914Z,-141.23
2018-06-14T08:06:30.355Z,-141.23
2018-06-14T08:08:59.551Z,191.23
2018-06-14T08:11:29.470Z,-141.23
2018-06-14T08:13:58.713Z,-141.23
2018-06-14T08:16:27.975Z,-141.23
2018-06-14T08:18:57.327Z,-141.23
2018-06-14T08:21:26.511Z,191.23
2018-06-14T08:23:55.743Z,-141.23
2018-06-14T08:26:24.942Z,108.00
2018-06-14T08:28:54.433Z,-141.23
2018-06-14T08:31:23.707Z,-141.23
2018-06-14T08:33:52.931Z,-141.23
2018-06-14T08:36:22.149Z,-141.23
2018-06-14T08:38:51.368Z,-141.23
2018-06-14T08:41:20.685Z,-141.23
2018-06-14T08:43:49.967Z,-141.23
2018-06-14T08:46:19.167Z,-141.23
2018-06-14T08:48:48.481Z,-141.23
2018-06-14T08:51:17.718Z,-141.23
2018-06-14T08:53:46.999Z,-141.23
2018-06-14T08:56:16.206Z,-141.23
2018-06-14T08:58:45.439Z,-141.23
2018-06-14T09:01:14.840Z,-141.23
2018-06-14T09:03:44.207Z,-141.23
2018-06-14T09:06:13.456Z,-141.23
2018-06-14T09:08:42.706Z,-141.23
2018-06-14T09:11:12.099Z,-141.23
2018-06-14T09:13:41.326Z,-141.23
2018-06-14T09:16:10.544Z,-141.23
2018-06-14T09:18:40.417Z,-141.23
2018-06-14T09:21:09.674Z,-141.23
2018-06-14T09:23:39.041Z,-141.23
2018-06-14T09:26:08.285Z,-141.23
2018-06-14T09:28:37.548Z,-141.23
2018-06-14T09:31:07.352Z,-141.23
2018-06-14T09:33:36.685Z,-141.23
2018-06-14T09:36:06.150Z,-141.23
2018-06-14T09:38:35.387Z,-141.23
2018-06-14T09:41:04.662Z,-141.23
2018-06-14T09:43:34.055Z,-141.23
2018-06-14T09:46:03.357Z,-141.23
2018-06-14T09:48:32.964Z,-141.23
2018-06-14T09:51:02.200Z,-141.23
2018-06-14T09:53:31.514Z,-141.23
2018-06-14T09:56:00.806Z,-141.23
2018-06-14T16:10:12.643Z,28.94
2018-06-14T16:12:41.964Z,28.85
2018-06-14T16:15:11.159Z,28.87
2018-06-14T16:17:40.333Z,29.25
2018-06-14T16:20:09.634Z,29.40
2018-06-14T16:22:38.822Z,29.28
2018-06-14T16:25:07.965Z,29.05
2018-06-14T16:27:37.105Z,29.12
2018-06-14T16:30:06.280Z,29.07
2018-06-14T16:32:35.435Z,28.98
2018-06-14T16:35:04.981Z,29.17
2018-06-14T16:37:34.174Z,28.59
2018-06-14T16:40:03.869Z,28.82
2018-06-14T16:42:33.025Z,28.70
2018-06-14T16:45:02.187Z,29.16
2018-06-14T16:47:31.360Z,28.99
2018-06-14T16:50:00.736Z,28.97
2018-06-14T16:52:29.959Z,28.94
2018-06-14T16:54:59.229Z,28.62
2018-06-14T16:57:28.396Z,28.75
2018-06-14T16:59:57.616Z,29.15
2018-06-14T17:02:27.058Z,29.19
2018-06-14T17:04:56.480Z,29.05
2018-06-14T17:07:26.029Z,29.07
2018-06-14T17:09:55.237Z,29.17
2018-06-14T17:12:24.861Z,28.98
2018-06-14T17:14:55.219Z,28.95
2018-06-14T17:17:25.107Z,29.16
2018-06-14T17:19:54.381Z,29.26
2018-06-14T17:22:23.690Z,29.22
2018-06-14T17:24:52.929Z,29.35
2018-06-14T17:27:22.166Z,28.88
2018-06-14T17:29:51.651Z,29.14
2018-06-14T17:32:21.040Z,29.28
2018-06-14T17:34:50.554Z,29.22
2018-06-14T17:37:19.780Z,29.04
2018-06-14T17:39:49.283Z,29.15
2018-06-14T17:42:19.427Z,29.22
2018-06-14T17:44:49.229Z,29.13
2018-06-14T17:47:18.850Z,28.88
2018-06-14T17:49:48.737Z,28.90
2018-06-14T17:52:18.327Z,29.00
2018-06-14T17:54:47.931Z,28.86
2018-06-14T17:57:17.450Z,28.87
2018-06-14T17:59:47.284Z,28.65
2018-06-14T18:02:17.213Z,28.50
2018-06-14T18:04:46.925Z,28.51
2018-06-14T18:07:16.369Z,28.26
2018-06-14T18:09:46.349Z,28.37
2018-06-14T18:12:15.670Z,28.20
2018-06-14T18:14:44.972Z,27.97
2018-06-14T18:17:14.386Z,28.04
2018-06-14T18:19:43.867Z,28.11
2018-06-14T18:22:13.273Z,28.18
2018-06-14T18:24:42.938Z,27.97
2018-06-14T18:27:12.649Z,27.92
2018-06-14T18:29:42.081Z,27.82
2018-06-14T18:32:11.431Z,27.85
2018-06-14T18:34:40.925Z,27.83
2018-06-14T18:37:10.464Z,27.71
2018-06-14T18:39:39.939Z,27.52
2018-06-14T18:42:09.483Z,27.54
2018-06-14T18:44:38.979Z,27.28
2018-06-14T18:47:08.037Z,27.36
2018-06-14T18:49:37.275Z,27.35
2018-06-14T18:52:06.509Z,27.31
2018-06-14T18:54:35.836Z,27.20
2018-06-14T18:57:05.235Z,27.11
2018-06-14T18:59:34.674Z,26.92
2018-06-14T19:02:04.508Z,26.90
2018-06-14T19:04:33.897Z,26.85
2018-06-14T19:07:03.524Z,26.76
2018-06-14T19:09:33.592Z,26.52
2018-06-14T19:12:03.017Z,26.60
2018-06-14T19:14:32.970Z,26.62
2018-06-14T19:17:02.318Z,26.31
2018-06-14T19:19:32.204Z,26.13
2018-06-14T19:22:01.723Z,26.11
2018-06-14T19:24:31.919Z,26.20
2018-06-14T19:27:02.200Z,26.04
2018-06-14T19:29:31.466Z,26.10
2018-06-14T19:32:01.001Z,26.08
2018-06-14T19:34:30.495Z,26.02
2018-06-14T19:38:24.397Z,25.98
2018-06-14T19:40:53.572Z,25.27
2018-06-14T19:43:22.945Z,25.50
2018-06-14T19:45:52.478Z,25.56
2018-06-14T19:48:22.161Z,25.54
2018-06-14T19:50:51.502Z,25.52
2018-06-14T19:53:20.915Z,25.49
2018-06-14T19:55:50.339Z,25.42
2018-06-14T19:58:19.889Z,25.44
2018-06-14T20:00:49.081Z,25.42
2018-06-14T20:03:18.524Z,25.32
2018-06-14T20:05:47.794Z,25.37
2018-06-14T20:08:17.512Z,25.35
2018-06-14T20:10:47.237Z,25.23
2018-06-14T20:13:16.628Z,25.20
2018-06-14T20:15:46.118Z,25.22
2018-06-14T20:18:15.320Z,25.28
2018-06-14T20:20:44.813Z,25.30
2018-06-14T20:23:13.911Z,25.28
2018-06-14T20:25:43.227Z,25.11
2018-06-14T20:28:12.481Z,25.02
2018-06-14T20:30:41.947Z,24.96
2018-06-14T20:33:11.954Z,24.91
2018-06-14T20:35:41.714Z,24.94
2018-06-14T20:38:11.006Z,24.89
2018-06-14T20:40:40.245Z,24.79
2018-06-14T20:43:09.450Z,24.71
2018-06-14T20:45:38.673Z,24.68
2018-06-14T20:48:07.848Z,24.63
2018-06-14T20:50:37.092Z,24.57
2018-06-14T20:53:06.364Z,24.59
2018-06-14T20:55:35.562Z,24.54
2018-06-14T20:58:04.771Z,24.59
2018-06-14T21:00:34.092Z,24.63
2018-06-14T21:03:03.345Z,24.47
2018-06-14T21:05:32.497Z,24.27
2018-06-14T21:08:01.655Z,23.95
2018-06-14T21:10:30.891Z,24.06
2018-06-14T21:13:00.038Z,24.12
2018-06-14T21:15:29.224Z,24.07
2018-06-14T21:17:58.416Z,23.99
2018-06-14T21:20:27.680Z,23.99
2018-06-14T21:22:56.920Z,23.96
2018-06-14T21:25:26.326Z,23.82
2018-06-14T21:27:55.521Z,23.76
2018-06-14T21:30:24.719Z,23.81
2018-06-14T21:32:54.061Z,23.86
2018-06-14T21:35:23.342Z,23.87
2018-06-14T21:37:59.379Z,23.84
2018-06-14T21:40:28.679Z,23.72
2018-06-14T21:42:57.907Z,23.85
2018-06-14T21:45:27.094Z,23.81
2018-06-14T21:47:56.377Z,23.92
2018-06-14T21:50:25.592Z,24.02
2018-06-14T21:52:54.904Z,24.06
2018-06-14T21:55:24.074Z,23.94
2018-06-14T21:57:53.273Z,23.89
2018-06-14T22:00:23.791Z,24.03
2018-06-14T22:02:58.233Z,23.99
2018-06-14T22:05:27.933Z,24.03
2018-06-14T22:07:57.141Z,24.01
2018-06-14T22:10:26.347Z,24.00
2018-06-14T22:12:55.549Z,23.94
2018-06-14T22:15:24.816Z,23.92
2018-06-14T22:17:54.015Z,23.91
2018-06-14T22:20:23.229Z,23.93
2018-06-14T22:22:52.615Z,23.89
2018-06-14T22:25:21.892Z,23.76
2018-06-14T22:27:51.042Z,23.85
2018-06-14T22:30:20.328Z,23.95
2018-06-14T22:33:07.816Z,23.83
2018-06-14T22:35:37.047Z,23.70
2018-06-14T22:38:06.622Z,23.79
2018-06-14T22:40:36.073Z,23.81
2018-06-14T22:43:05.473Z,23.62
2018-06-14T22:45:34.658Z,23.71
2018-06-14T22:48:03.933Z,23.58
2018-06-14T22:50:50.245Z,23.74
2018-06-14T22:53:19.381Z,23.61
2018-06-14T22:55:48.662Z,23.68
2018-06-14T22:58:17.857Z,23.72
2018-06-14T23:01:52.283Z,23.74
2018-06-14T23:04:22.815Z,23.23
2018-06-14T23:06:52.162Z,23.38
2018-06-14T23:10:39.441Z,23.45
2018-06-14T23:13:09.870Z,22.93
2018-06-14T23:15:39.130Z,23.21
2018-06-14T23:18:08.384Z,23.41
2018-06-14T23:20:37.874Z,23.52
2018-06-14T23:23:07.559Z,23.58
2018-06-14T23:25:37.194Z,23.53
2018-06-14T23:28:06.392Z,23.58
2018-06-14T23:30:35.542Z,23.59
2018-06-14T23:33:04.815Z,23.66
2018-06-14T23:35:34.002Z,23.63
2018-06-14T23:38:03.181Z,23.61
2018-06-14T23:40:32.383Z,23.73
2018-06-14T23:43:01.575Z,23.66
2018-06-14T23:45:30.677Z,23.74
2018-06-14T23:47:59.901Z,23.77
2018-06-14T23:50:29.076Z,23.72
2018-06-14T23:52:58.268Z,23.67
2018-06-14T23:55:27.396Z,23.80
2018-06-14T23:57:56.574Z,23.79
